Time;durP1;ratioP1;P1;durP2;ratioP2;P2;SDS_P1;SDS_P2;PMS_P1;PMS_P2;Temp;Humidity;BMP_temperature;BMP_pressure;BME280_temperature;BME280_humidity;BME280_pressure;Samples;Min_cycle;Max_cycle;Signal;HPM_P1;HPM_P2
2023/01/23 00:00:29;;;;;;;42.38;28.63;;;;;;;0.92;100.00;160812.44;5031141;28;20404;-67
2023/01/23 00:02:55;;;;;;;59.72;33.90;;;;;;;0.88;100.00;160803.06;5032826;28;20046;-67
2023/01/23 00:05:21;;;;;;;48.17;30.17;;;;;;;0.86;100.00;160797.69;5030695;28;20029;-68
2023/01/23 00:07:46;;;;;;;40.80;28.65;;;;;;;0.93;100.00;160815.13;5023663;28;20025;-68
2023/01/23 00:10:11;;;;;;;43.75;31.58;;;;;;;0.94;100.00;160817.81;5031059;28;20044;-68
2023/01/23 00:12:41;;;;;;;49.22;32.30;;;;;;;0.95;100.00;160821.84;5031996;28;20017;-69
2023/01/23 00:15:06;;;;;;;47.08;33.78;;;;;;;0.95;100.00;160821.84;5031561;28;20037;-68
2023/01/23 00:17:32;;;;;;;52.55;33.67;;;;;;;0.98;100.00;160827.22;5032416;28;20025;-69
2023/01/23 00:19:58;;;;;;;46.58;32.45;;;;;;;0.97;100.00;160824.53;5032032;28;20420;-69
2023/01/23 00:22:23;;;;;;;50.75;34.40;;;;;;;0.98;100.00;160827.22;5030896;28;20041;-69
2023/01/23 00:24:49;;;;;;;44.30;29.30;;;;;;;0.96;100.00;160823.19;5032560;28;20068;-69
2023/01/23 00:27:14;;;;;;;49.65;31.55;;;;;;;0.99;100.00;160831.22;5030334;28;20496;-69
2023/01/23 00:29:39;;;;;;;41.13;29.60;;;;;;;1.00;100.00;160832.59;5032527;28;20033;-69
2023/01/23 00:32:05;;;;;;;49.45;31.02;;;;;;;1.00;100.00;160832.59;5030719;28;20045;-69
2023/01/23 00:34:30;;;;;;;57.35;32.90;;;;;;;1.04;100.00;160843.28;5031779;28;20047;-69
2023/01/23 00:36:56;;;;;;;39.78;27.25;;;;;;;1.04;100.00;160843.28;5030410;28;20045;-68
2023/01/23 00:39:22;;;;;;;50.45;29.65;;;;;;;1.07;100.00;160852.69;5031905;28;20022;-69
2023/01/23 00:41:48;;;;;;;50.95;32.60;;;;;;;1.05;100.00;160847.31;5030046;28;20041;-69
2023/01/23 00:44:14;;;;;;;58.25;36.55;;;;;;;1.03;100.00;160841.97;5031434;28;20032;-69
2023/01/23 00:46:39;;;;;;;49.10;31.48;;;;;;;1.05;100.00;160845.97;5030423;28;20603;-69
2023/01/23 00:49:05;;;;;;;48.92;34.08;;;;;;;1.06;100.00;160848.69;5031704;28;20112;-69
2023/01/23 00:51:31;;;;;;;43.35;31.23;;;;;;;1.06;100.00;160850.00;5030283;28;20375;-69
2023/01/23 00:53:56;;;;;;;54.78;34.20;;;;;;;1.08;100.00;160854.06;5031975;28;20422;-69
2023/01/23 00:56:22;;;;;;;47.60;32.47;;;;;;;1.10;100.00;160859.38;5029205;28;20052;-68
2023/01/23 00:58:47;;;;;;;45.95;34.45;;;;;;;1.10;100.00;160859.38;5031771;28;20392;-67
2023/01/23 01:01:14;;;;;;;47.80;29.67;;;;;;;1.03;100.00;160840.59;5029983;28;20042;-67
2023/01/23 01:03:40;;;;;;;68.05;37.08;;;;;;;1.06;100.00;160848.69;5031077;28;20044;-67
2023/01/23 01:06:05;;;;;;;44.83;31.52;;;;;;;1.06;100.00;160848.69;5030254;28;20532;-68
2023/01/23 01:08:31;;;;;;;47.90;33.40;;;;;;;1.07;100.00;160851.38;5031500;28;20112;-67
2023/01/23 01:10:56;;;;;;;57.67;34.45;;;;;;;1.11;100.00;160862.06;5029757;28;20049;-67
2023/01/23 01:13:22;;;;;;;46.58;32.00;;;;;;;1.02;100.00;160837.91;5031529;28;20444;-68
2023/01/23 01:15:49;;;;;;;46.40;31.90;;;;;;;1.08;100.00;160854.06;5030103;28;20043;-68
2023/01/23 01:18:14;;;;;;;60.35;32.20;;;;;;;1.06;100.00;160848.69;5030781;28;20472;-68
2023/01/23 01:20:41;;;;;;;45.47;31.15;;;;;;;1.06;100.00;160850.00;5029461;28;20045;-68
2023/01/23 01:23:07;;;;;;;46.05;32.10;;;;;;;1.07;100.00;160851.38;5031458;28;20030;-68
2023/01/23 01:25:32;;;;;;;45.58;30.92;;;;;;;1.08;100.00;160855.38;5028961;28;20583;-67
2023/01/23 01:27:57;;;;;;;63.42;33.25;;;;;;;1.07;100.00;160851.38;5031394;28;20021;-67
2023/01/23 01:30:25;;;;;;;45.17;33.53;;;;;;;1.05;100.00;160845.97;5029658;28;20052;-67
2023/01/23 01:32:52;;;;;;;45.60;31.30;;;;;;;1.08;100.00;160854.06;5030519;28;20028;-67
2023/01/23 01:35:18;;;;;;;47.03;33.60;;;;;;;1.06;100.00;160850.00;5029329;28;20029;-68
2023/01/23 01:37:43;;;;;;;45.55;31.63;;;;;;;1.06;100.00;160848.69;5031283;28;20071;-69
2023/01/23 01:40:17;;;;;;;42.22;29.33;;;;;;;1.03;100.00;160840.59;5029371;28;20021;-69
2023/01/23 01:42:53;;;;;;;47.60;31.60;;;;;;;0.95;100.00;160821.84;5030950;28;20036;-69
2023/01/23 01:45:56;;;;;;;56.50;37.60;;;;;;;1.05;100.00;160845.97;5029235;28;20361;-69
2023/01/23 01:48:27;;;;;;;54.05;36.47;;;;;;;1.07;100.00;160851.38;5030341;28;20040;-68
2023/01/23 01:50:53;;;;;;;45.13;35.13;;;;;;;1.07;100.00;160851.38;5029443;28;20033;-68
2023/01/23 01:53:22;;;;;;;47.08;30.92;;;;;;;1.04;100.00;160844.63;5031020;28;20032;-67
2023/01/23 01:55:48;;;;;;;39.80;29.00;;;;;;;1.04;100.00;160843.28;5028968;28;20499;-67
2023/01/23 01:58:13;;;;;;;51.08;34.65;;;;;;;1.06;100.00;160848.69;5030497;28;20472;-67
2023/01/23 02:00:39;;;;;;;46.08;30.45;;;;;;;1.06;100.00;160850.00;5029439;28;20045;-67
2023/01/23 02:03:05;;;;;;;52.22;34.42;;;;;;;1.06;100.00;160848.69;5029622;28;20077;-67
2023/01/23 02:05:34;;;;;;;46.17;30.98;;;;;;;1.05;100.00;160847.31;5028998;28;20041;-68
2023/01/23 02:08:08;;;;;;;44.50;30.80;;;;;;;1.06;100.00;160848.69;5030772;28;20052;-68
2023/01/23 02:10:35;;;;;;;50.42;33.67;;;;;;;1.07;100.00;160851.38;5028723;28;20460;-68
2023/01/23 02:13:21;;;;;;;56.55;34.28;;;;;;;1.11;100.00;160862.06;5030786;28;20081;-68
2023/01/23 02:15:46;;;;;;;47.30;30.58;;;;;;;1.08;100.00;160854.06;5029303;28;20416;-69
2023/01/23 02:18:12;;;;;;;42.03;30.63;;;;;;;1.04;100.00;160844.63;5029785;28;20025;-68
2023/01/23 02:20:38;;;;;;;47.83;34.65;;;;;;;1.04;100.00;160843.28;5029254;28;20049;-69
2023/01/23 02:23:45;;;;;;;59.67;39.08;;;;;;;1.02;100.00;160837.91;5030706;28;20064;-68
2023/01/23 02:26:26;;;;;;;48.60;30.73;;;;;;;0.97;100.00;160824.53;5021090;28;20048;-68
2023/01/23 02:28:52;;;;;;;38.85;27.73;;;;;;;0.97;100.00;160824.53;5030669;28;20029;-68
2023/01/23 02:31:18;;;;;;;52.50;34.08;;;;;;;1.01;100.00;160836.59;5028571;28;20104;-68
2023/01/23 02:33:47;;;;;;;45.20;30.65;;;;;;;1.02;100.00;160839.28;5018948;28;20021;-68
2023/01/23 02:36:13;;;;;;;49.38;32.15;;;;;;;1.01;100.00;160835.22;5028797;28;20135;-64
2023/01/23 02:38:48;;;;;;;49.35;32.80;;;;;;;1.01;100.00;160836.59;5030703;28;20029;-69
2023/01/23 02:41:15;;;;;;;54.50;30.98;;;;;;;0.97;100.00;160824.53;5028279;28;20432;-69
2023/01/23 02:43:41;;;;;;;42.45;29.08;;;;;;;0.89;100.00;160804.44;5030422;28;20105;-69
2023/01/23 02:46:09;;;;;;;49.08;31.20;;;;;;;0.87;100.00;160800.38;5030917;28;20045;-68
2023/01/23 02:48:38;;;;;;;42.17;29.67;;;;;;;0.92;100.00;160812.44;5033654;28;20061;-69
2023/01/23 02:51:04;;;;;;;;;;;;;;;0.99;100.00;160829.91;5033073;28;20041;-68
2023/01/23 02:53:30;;;;;;;58.30;35.00;;;;;;;1.01;100.00;160835.22;5034020;28;19912;-69
2023/01/23 02:55:57;;;;;;;38.03;28.77;;;;;;;0.99;100.00;160829.91;5032350;28;20067;-69
2023/01/23 03:01:07;;;;;;;42.35;27.52;;;;;;;1.04;100.00;160843.28;5032541;28;20436;-69
2023/01/23 03:03:32;;;;;;;44.88;28.30;;;;;;;1.11;100.00;160862.06;5033282;28;20045;-68
2023/01/23 03:06:01;;;;;;;43.90;28.73;;;;;;;1.08;100.00;160854.06;5032552;28;20048;-68
2023/01/23 03:08:32;;;;;;;40.47;26.30;;;;;;;1.04;100.00;160843.28;5033799;28;20117;-68
2023/01/23 03:10:58;;;;;;;37.35;26.80;;;;;;;1.04;100.00;160843.28;5032373;28;20087;-68
2023/01/23 03:13:23;;;;;;;32.80;27.73;;;;;;;1.09;100.00;160856.69;5033433;28;20468;-68
2023/01/23 03:15:51;;;;;;;37.25;26.73;;;;;;;1.03;100.00;160840.59;5031916;28;20099;-68
2023/01/23 03:18:17;;;;;;;43.53;28.05;;;;;;;0.99;100.00;160829.91;5033042;28;20032;-68
2023/01/23 03:20:42;;;;;;;40.85;30.35;;;;;;;1.03;100.00;160840.59;5032399;28;20029;-69
2023/01/23 03:23:08;;;;;;;39.35;26.60;;;;;;;1.07;100.00;160851.38;5033661;28;20125;-68
2023/01/23 03:25:33;;;;;;;48.22;29.38;;;;;;;1.03;100.00;160840.59;5031355;28;20045;-68
2023/01/23 03:27:58;;;;;;;38.03;27.77;;;;;;;0.97;100.00;160824.53;5033613;28;20025;-67
2023/01/23 03:30:24;;;;;;;45.78;26.23;;;;;;;0.98;100.00;160827.22;5031641;28;20048;-66
2023/01/23 03:32:50;;;;;;;42.35;27.80;;;;;;;0.98;100.00;160827.22;5033215;28;20071;-67
2023/01/23 03:35:18;;;;;;;46.45;31.42;;;;;;;1.02;100.00;160839.28;5031592;28;20021;-66
2023/01/23 03:37:45;;;;;;;47.90;32.17;;;;;;;0.99;100.00;160831.22;5033527;28;20021;-67
2023/01/23 03:43:07;;;;;;;42.53;28.08;;;;;;;1.01;100.00;160835.22;5013712;28;20551;-67
2023/01/23 03:45:32;;;;;;;38.95;27.73;;;;;;;1.01;100.00;160835.22;5024020;28;20034;-66
2023/01/23 03:47:58;;;;;;;38.53;29.65;;;;;;;1.07;100.00;160851.38;5033060;28;20071;-67
2023/01/23 03:50:23;;;;;;;47.47;30.33;;;;;;;1.10;100.00;160859.38;5031276;28;20500;-67
2023/01/23 03:52:48;;;;;;;50.90;28.40;;;;;;;1.12;100.00;160864.75;5032972;28;20107;-67
2023/01/23 03:55:14;;;;;;;52.25;30.38;;;;;;;1.10;100.00;160860.75;5030843;28;20025;-67
2023/01/23 03:57:39;;;;;;;46.28;30.77;;;;;;;1.11;100.00;160862.06;5032661;28;20025;-67
2023/01/23 04:00:05;;;;;;;43.13;28.85;;;;;;;1.15;100.00;160871.47;5031180;28;20369;-67
2023/01/23 04:02:31;;;;;;;44.83;28.70;;;;;;;1.21;100.00;160888.91;5032133;28;20032;-68
2023/01/23 04:04:57;;;;;;;39.22;28.30;;;;;;;1.19;100.00;160883.53;5032577;28;20029;-68
2023/01/23 04:07:22;;;;;;;48.80;30.00;;;;;;;1.21;100.00;160888.91;5030929;28;20432;-69
2023/01/23 04:09:47;;;;;;;39.95;28.42;;;;;;;1.23;100.00;160894.25;5032289;28;20025;-68
2023/01/23 04:12:13;;;;;;;42.30;28.60;;;;;;;1.21;100.00;160888.91;5031186;28;20037;-69
2023/01/23 04:14:38;;;;;;;45.13;27.65;;;;;;;1.24;100.00;160896.94;5032537;28;20021;-68
2023/01/23 04:17:05;;;;;;;38.28;25.27;;;;;;;1.25;100.00;160898.31;5029641;28;20037;-68
2023/01/23 04:19:31;;;;;;;47.38;28.00;;;;;;;1.25;100.00;160898.31;5032098;28;20025;-68
2023/01/23 04:21:57;;;;;;;45.75;29.05;;;;;;;1.24;100.00;160895.63;5030992;28;20088;-67
2023/01/23 04:24:22;;;;;;;55.30;31.77;;;;;;;1.12;100.00;160863.44;5031777;28;20025;-67
2023/01/23 04:26:47;;;;;;;40.70;28.40;;;;;;;1.21;100.00;160888.91;5030968;28;20493;-68
2023/01/23 04:29:13;;;;;;;39.67;28.20;;;;;;;1.21;100.00;160888.91;5032392;28;20036;-68
2023/01/23 04:31:38;;;;;;;43.38;29.52;;;;;;;1.21;100.00;160888.91;5030268;28;20057;-68
2023/01/23 04:34:03;;;;;;;47.92;29.83;;;;;;;1.19;100.00;160883.53;5032149;28;20033;-69
2023/01/23 04:36:29;;;;;;;40.67;28.10;;;;;;;1.16;100.00;160874.16;5030122;28;20041;-68
2023/01/23 04:38:54;;;;;;;45.50;27.00;;;;;;;1.13;100.00;160867.44;5032246;28;20044;-68
2023/01/23 04:41:23;;;;;;;42.17;29.80;;;;;;;1.13;100.00;160867.44;5030394;28;20030;-68
2023/01/23 04:43:48;;;;;;;46.38;31.13;;;;;;;1.09;100.00;160858.06;5032148;28;20112;-68
2023/01/23 04:46:14;;;;;;;48.58;30.50;;;;;;;1.06;100.00;160850.00;5030004;28;20052;-68
2023/01/23 04:48:39;;;;;;;37.60;27.25;;;;;;;1.06;100.00;160848.69;5031791;28;20033;-68
2023/01/23 04:51:05;;;;;;;43.67;30.30;;;;;;;1.09;100.00;160856.69;5030589;28;20067;-68
2023/01/23 04:53:30;;;;;;;50.10;31.05;;;;;;;1.06;100.00;160850.00;5031422;28;20555;-68
2023/01/23 04:55:55;;;;;;;37.40;28.33;;;;;;;1.01;100.00;160835.22;5030206;28;20041;-68
2023/01/23 04:58:21;;;;;;;43.10;30.52;;;;;;;1.10;100.00;160860.75;5031716;28;20052;-68
2023/01/23 05:00:46;;;;;;;43.92;35.13;;;;;;;1.12;100.00;160864.75;5029931;28;20120;-68
2023/01/23 05:03:12;;;;;;;54.80;35.13;;;;;;;1.15;100.00;160872.81;5030659;28;20408;-68
2023/01/23 05:05:38;;;;;;;47.75;31.60;;;;;;;1.15;100.00;160871.47;5030256;28;20061;-68
2023/01/23 05:08:03;;;;;;;51.85;31.25;;;;;;;1.15;100.00;160871.47;5030270;28;20026;-68
2023/01/23 05:10:28;;;;;;;48.00;31.55;;;;;;;1.16;100.00;160875.47;5029856;28;20095;-67
2023/01/23 05:12:54;;;;;;;43.17;30.48;;;;;;;1.18;100.00;160880.84;5031325;28;20080;-67
2023/01/23 05:15:20;;;;;;;39.15;27.92;;;;;;;1.18;100.00;160880.84;5027491;28;20488;-67
2023/01/23 05:17:46;;;;;;;40.78;28.95;;;;;;;1.19;100.00;160883.53;5031294;28;20033;-67
2023/01/23 05:20:11;;;;;;;39.95;29.67;;;;;;;1.24;100.00;160895.63;5029588;28;20399;-66
2023/01/23 05:22:37;;;;;;;48.22;30.58;;;;;;;1.24;100.00;160896.94;5030210;28;20040;-67
2023/01/23 05:25:02;;;;;;;45.97;28.90;;;;;;;1.29;100.00;160907.69;5029905;28;20041;-65
2023/01/23 05:27:28;;;;;;;35.03;29.48;;;;;;;1.30;100.00;160910.38;5030771;28;20155;-68
2023/01/23 05:29:53;;;;;;;38.40;28.50;;;;;;;1.31;100.00;160913.03;5030640;28;20025;-65
2023/01/23 05:32:18;;;;;;;47.22;29.10;;;;;;;1.32;100.00;160915.72;5029489;28;20416;-65
2023/01/23 05:34:44;;;;;;;44.70;28.98;;;;;;;1.35;100.00;160923.78;5030413;28;20022;-63
2023/01/23 05:37:10;;;;;;;39.13;26.67;;;;;;;1.37;100.00;160929.16;5010036;28;20045;-62
2023/01/23 05:39:35;;;;;;;39.90;28.05;;;;;;;1.38;100.00;160931.78;5010154;28;20378;-61
2023/01/23 05:42:01;;;;;;;46.90;29.88;;;;;;;1.35;100.00;160923.78;5009868;28;20111;-61
2023/01/23 05:44:27;;;;;;;43.38;30.77;;;;;;;1.32;100.00;160915.72;5010752;28;20092;-61
2023/01/23 05:46:52;;;;;;;45.65;32.40;;;;;;;1.33;100.00;160918.41;5009922;28;20057;-62
2023/01/23 05:49:18;;;;;;;45.85;32.47;;;;;;;1.31;100.00;160914.38;5011036;28;20024;-62
2023/01/23 05:51:43;;;;;;;44.42;30.75;;;;;;;1.30;100.00;160911.69;5009608;28;20528;-61
2023/01/23 05:54:09;;;;;;;51.90;37.08;;;;;;;1.34;100.00;160921.09;5011180;28;20389;-62
2023/01/23 05:56:35;;;;;;;48.55;35.20;;;;;;;1.33;100.00;160918.41;5009447;28;20046;-62
2023/01/23 05:59:00;;;;;;;53.88;37.35;;;;;;;1.34;100.00;160921.09;5011119;28;20099;-62
2023/01/23 06:01:25;;;;;;;47.60;29.70;;;;;;;1.34;100.00;160921.09;5008955;28;20038;-62
2023/01/23 06:03:51;;;;;;;60.97;36.50;;;;;;;1.35;100.00;160923.78;5011060;28;20386;-62
2023/01/23 06:06:16;;;;;;;45.45;32.00;;;;;;;1.33;100.00;160918.41;5009382;28;20037;-61
2023/01/23 06:08:41;;;;;;;41.75;31.35;;;;;;;1.29;100.00;160907.69;5010927;28;20022;-61
2023/01/23 06:11:07;;;;;;;50.17;30.85;;;;;;;1.32;100.00;160915.72;5009696;28;20050;-61
2023/01/23 06:13:32;;;;;;;49.42;35.15;;;;;;;1.33;100.00;160918.41;5010698;28;20025;-61
2023/01/23 06:15:58;;;;;;;52.10;37.03;;;;;;;1.35;100.00;160925.09;5009185;28;20041;-62
2023/01/23 06:18:23;;;;;;;72.82;42.65;;;;;;;1.32;100.00;160915.72;5010828;28;20515;-62
2023/01/23 06:20:48;;;;;;;48.60;35.40;;;;;;;1.35;100.00;160923.78;5013043;28;20048;-62
2023/01/23 06:23:14;;;;;;;52.78;33.88;;;;;;;1.39;100.00;160934.50;5014400;28;20018;-62
2023/01/23 06:25:40;;;;;;;41.72;30.65;;;;;;;1.41;100.00;160939.88;5013559;28;20508;-61
2023/01/23 06:28:05;;;;;;;44.03;31.70;;;;;;;1.42;100.00;160942.56;5013715;28;20112;-61
2023/01/23 06:30:30;;;;;;;39.95;29.45;;;;;;;1.44;100.00;160947.94;5012860;28;20037;-61
2023/01/23 06:32:56;;;;;;;43.47;31.25;;;;;;;1.47;100.00;160955.97;5014836;28;20485;-61
2023/01/23 06:35:21;;;;;;;54.90;30.80;;;;;;;1.46;100.00;160953.25;5013257;28;20026;-61
2023/01/23 06:37:47;;;;;;;46.25;33.22;;;;;;;1.48;100.00;160958.66;5014484;28;20022;-61
2023/01/23 06:40:13;;;;;;;51.33;30.40;;;;;;;1.58;100.00;160984.13;5012843;28;20544;-61
2023/01/23 06:42:39;;;;;;;53.53;31.20;;;;;;;1.56;100.00;160980.13;5014530;28;20029;-61
2023/01/23 06:45:06;;;;;;;43.35;29.83;;;;;;;1.53;100.00;160972.03;5012834;28;20404;-61
2023/01/23 06:47:31;;;;;;;51.78;32.45;;;;;;;1.55;100.00;160976.09;5014181;28;20033;-61
2023/01/23 06:49:57;;;;;;;56.15;31.55;;;;;;;1.60;100.00;160988.19;5014830;28;20022;-61
2023/01/23 06:52:22;;;;;;;48.85;30.85;;;;;;;1.65;100.00;161001.59;5012294;28;20245;-61
2023/01/23 06:54:48;;;;;;;40.65;30.75;;;;;;;1.53;100.00;160970.72;5014676;28;20362;-62
2023/01/23 06:57:13;;;;;;;45.70;29.85;;;;;;;1.63;100.00;160996.22;5012703;28;20046;-62
2023/01/23 06:59:39;;;;;;;43.80;29.63;;;;;;;1.68;100.00;161009.59;5013821;28;20495;-61
2023/01/23 07:02:05;;;;;;;41.80;29.05;;;;;;;1.70;100.00;161015.00;5012997;28;20136;-61
2023/01/23 07:04:31;;;;;;;47.08;29.23;;;;;;;1.69;100.00;161012.31;5013773;28;20497;-61
2023/01/23 07:06:56;;;;;;;45.28;30.65;;;;;;;1.72;100.00;161020.38;5012479;28;20046;-61
2023/01/23 07:09:22;;;;;;;48.70;30.98;;;;;;;1.70;100.00;161016.34;5014254;28;20068;-61
2023/01/23 07:11:47;;;;;;;42.83;29.60;;;;;;;1.71;100.00;161019.00;5012839;28;20033;-61
2023/01/23 07:14:12;;;;;;;46.50;28.13;;;;;;;1.69;100.00;161013.66;5013440;28;20496;-61
2023/01/23 07:16:38;;;;;;;34.60;27.05;;;;;;;1.72;100.00;161020.38;5012711;28;20038;-61
2023/01/23 07:19:04;;;;;;;40.67;30.52;;;;;;;1.74;100.00;161027.06;5014268;28;20033;-61
2023/01/23 07:21:30;;;;;;;43.75;29.75;;;;;;;1.71;100.00;161017.69;5011878;28;20038;-61
2023/01/23 07:23:55;;;;;;;45.10;30.90;;;;;;;1.76;100.00;161031.09;5013983;28;20026;-61
2023/01/23 07:26:21;;;;;;;48.33;31.40;;;;;;;1.78;100.00;161036.47;5012189;28;20037;-61
2023/01/23 07:28:46;;;;;;;48.00;32.90;;;;;;;1.78;100.00;161035.16;5013372;28;20034;-61
2023/01/23 07:31:11;;;;;;;32.72;25.98;;;;;;;1.80;100.00;161041.84;5011545;28;20049;-61
2023/01/23 07:33:37;;;;;;;41.17;28.17;;;;;;;1.76;100.00;161031.09;5014042;28;20428;-62
2023/01/23 07:36:06;;;;;;;44.65;29.95;;;;;;;1.75;100.00;161028.38;5012060;28;20042;-61
2023/01/23 07:38:31;;;;;;;;;;;;;;;1.80;100.00;161040.47;5013972;28;20033;-61
2023/01/23 07:40:57;;;;;;;50.58;31.17;;;;;;;1.82;100.00;161047.22;5011921;28;19919;-61
2023/01/23 07:43:23;;;;;;;47.03;31.52;;;;;;;1.84;100.00;161052.56;5012627;28;20022;-62
2023/01/23 07:45:49;;;;;;;52.45;29.20;;;;;;;1.88;100.00;161063.31;5012210;28;20042;-61
2023/01/23 07:48:14;;;;;;;43.20;31.48;;;;;;;1.86;100.00;161057.94;5012992;28;20018;-62
2023/01/23 07:50:40;;;;;;;46.15;30.30;;;;;;;1.87;100.00;161059.25;5010362;28;20408;-61
2023/01/23 07:53:05;;;;;;;64.13;32.88;;;;;;;1.86;100.00;161057.94;5012851;28;20097;-61
2023/01/23 07:55:30;;;;;;;60.55;36.85;;;;;;;1.89;100.00;161066.00;5010853;28;20977;-61
2023/01/23 07:57:56;;;;;;;47.28;31.75;;;;;;;1.90;100.00;161068.66;5012029;28;20087;-61
2023/01/23 08:00:22;;;;;;;48.10;29.20;;;;;;;1.94;100.00;161078.03;5010784;28;20042;-61
2023/01/23 08:02:47;;;;;;;52.95;31.77;;;;;;;1.93;100.00;161075.41;5012671;28;20053;-60
2023/01/23 08:05:13;;;;;;;50.63;30.73;;;;;;;1.92;100.00;161071.34;5011093;28;20405;-61
2023/01/23 08:07:38;;;;;;;53.50;31.35;;;;;;;1.95;100.00;161079.41;5013294;28;20022;-61
2023/01/23 08:10:04;;;;;;;62.55;35.55;;;;;;;1.93;100.00;161075.41;5009516;28;20036;-61
2023/01/23 08:12:30;;;;;;;54.85;35.40;;;;;;;2.00;100.00;161092.81;5024469;28;20024;-62
2023/01/23 08:14:55;;;;;;;57.67;33.22;;;;;;;1.96;100.00;161083.44;5033011;28;20025;-62
2023/01/23 08:17:20;;;;;;;54.42;34.55;;;;;;;1.98;100.00;161087.44;5017618;28;20046;-62
2023/01/23 08:19:46;;;;;;;57.15;34.92;;;;;;;1.99;100.00;161090.13;5012453;28;20030;-61
2023/01/23 08:22:11;;;;;;;59.05;35.33;;;;;;;2.00;100.00;161092.81;5010393;28;20038;-62
2023/01/23 08:24:37;;;;;;;55.03;34.92;;;;;;;1.94;100.00;161076.72;5012467;28;20045;-62
2023/01/23 08:27:02;;;;;;;63.38;35.35;;;;;;;2.07;100.00;161111.59;5010984;28;20529;-62
2023/01/23 08:29:27;;;;;;;57.03;35.50;;;;;;;2.04;100.00;161104.91;5012053;28;20026;-62
2023/01/23 08:31:53;;;;;;;61.50;35.72;;;;;;;2.14;100.00;161130.41;5011115;28;20092;-62
2023/01/23 08:34:20;;;;;;;52.80;33.45;;;;;;;2.14;100.00;161130.41;5012368;28;20021;-61
2023/01/23 08:36:45;;;;;;;52.65;34.72;;;;;;;2.15;100.00;161133.09;5010702;28;20045;-62
2023/01/23 08:39:10;;;;;;;65.88;36.90;;;;;;;2.14;100.00;161130.41;5012382;28;20022;-62
2023/01/23 08:41:36;;;;;;;49.53;33.13;;;;;;;2.19;100.00;161143.84;5009931;28;20041;-62
2023/01/23 08:44:02;;;;;;;62.85;42.78;;;;;;;2.25;100.00;161158.59;5010905;28;20029;-62
2023/01/23 08:46:28;;;;;;;45.20;34.92;;;;;;;2.18;100.00;161141.16;5010660;28;20048;-61
2023/01/23 08:48:53;;;;;;;44.05;31.45;;;;;;;2.17;100.00;161138.47;5012359;28;20409;-62
2023/01/23 08:51:18;;;;;;;45.08;32.17;;;;;;;2.21;100.00;161147.88;5010288;28;20034;-61
2023/01/23 08:53:44;;;;;;;37.60;29.88;;;;;;;2.22;100.00;161151.88;5012001;28;20029;-62
2023/01/23 08:56:14;;;;;;;42.92;31.65;;;;;;;2.18;100.00;161141.16;5009749;28;20037;-62
2023/01/23 08:58:39;;;;;;;38.08;29.92;;;;;;;2.19;100.00;161142.47;5012420;28;20041;-62
2023/01/23 09:01:09;;;;;;;43.63;31.27;;;;;;;2.20;100.00;161145.19;5009828;28;20042;-62
2023/01/23 09:03:34;;;;;;;41.13;29.83;;;;;;;2.22;100.00;161151.88;5011584;28;20497;-62
2023/01/23 09:06:01;;;;;;;50.13;32.67;;;;;;;2.22;100.00;161151.88;5010495;28;20086;-63
2023/01/23 09:08:26;;;;;;;38.22;28.13;;;;;;;2.28;100.00;161165.28;5011874;28;20434;-61
2023/01/23 09:10:52;;;;;;;38.13;29.90;;;;;;;2.38;100.00;161192.16;5010553;28;20037;-62
2023/01/23 09:13:18;;;;;;;40.92;30.33;;;;;;;2.43;100.00;161205.56;5010666;28;20032;-62
2023/01/23 09:15:44;;;;;;;36.30;29.10;;;;;;;2.48;100.00;161219.03;5009908;28;20037;-63
2023/01/23 09:18:10;;;;;;;53.90;32.50;;;;;;;2.44;100.00;161206.94;5008547;28;20198;-62
2023/01/23 09:20:37;;;;;;;42.75;29.95;;;;;;;2.51;100.00;161227.03;5026293;28;20045;-61
2023/01/23 09:23:02;;;;;;;37.08;28.52;;;;;;;2.57;100.00;161240.50;5024375;28;20109;-61
2023/01/23 09:25:30;;;;;;;39.30;27.80;;;;;;;2.64;100.00;161259.31;5009847;28;20555;-61
2023/01/23 09:27:55;;;;;;;39.30;28.00;;;;;;;2.66;100.00;161264.63;5011586;28;20384;-61
2023/01/23 09:30:20;;;;;;;35.92;28.25;;;;;;;2.70;100.00;161275.41;5010105;28;20041;-61
2023/01/23 09:32:46;;;;;;;41.97;29.13;;;;;;;2.82;100.00;161306.28;5011679;28;20026;-62
2023/01/23 09:35:11;;;;;;;35.75;26.95;;;;;;;2.83;100.00;161310.31;5009660;28;20519;-61
2023/01/23 09:40:23;;;;;;;38.67;27.67;;;;;;;2.89;100.00;161323.72;5010086;28;20110;-61
2023/01/23 09:42:50;;;;;;;42.97;31.73;;;;;;;2.95;100.00;161339.81;5010975;28;20445;-62
2023/01/23 09:45:20;;;;;;;39.28;30.30;;;;;;;3.05;100.00;161365.38;5008317;28;20022;-61
2023/01/23 09:47:59;;;;;;;46.65;31.20;;;;;;;3.00;100.00;161353.28;5008343;28;20026;-62
2023/01/23 09:50:33;;;;;;;43.13;31.17;;;;;;;2.95;100.00;161339.81;5009238;28;20048;-62
2023/01/23 09:53:10;;;;;;;41.97;31.33;;;;;;;3.07;100.00;161370.72;5011609;28;20030;-62
2023/01/23 09:55:44;;;;;;;43.30;29.13;;;;;;;3.02;100.00;161358.63;5008443;28;20033;-61
2023/01/23 09:58:19;;;;;;;49.05;34.15;;;;;;;3.00;100.00;161353.28;5010922;28;20029;-62
2023/01/23 10:00:45;;;;;;;43.42;31.65;;;;;;;3.07;100.00;161372.09;5009519;28;20117;-61
2023/01/23 10:03:14;;;;;;;39.50;30.88;;;;;;;3.08;100.00;161374.78;5011192;28;20065;-61
2023/01/23 10:06:04;;;;;;;51.22;33.80;;;;;;;3.06;100.00;161369.41;5009452;28;20048;-61
2023/01/23 10:09:03;;;;;;;46.40;34.83;;;;;;;3.10;100.00;161380.13;5010890;28;20053;-62
2023/01/23 10:11:48;;;;;;;49.40;34.85;;;;;;;3.19;100.00;161402.97;5009085;28;20103;-61
2023/01/23 10:14:27;;;;;;;45.13;33.58;;;;;;;3.26;100.00;161420.41;5011042;28;20029;-62
2023/01/23 10:16:59;;;;;;;46.28;32.92;;;;;;;3.26;100.00;161420.41;5008311;28;20413;-62
2023/01/23 10:19:47;;;;;;;42.38;31.35;;;;;;;3.21;100.00;161407.00;5010358;28;20388;-62
2023/01/23 10:22:34;;;;;;;47.35;31.85;;;;;;;3.28;100.00;161425.81;4988994;28;20045;-62
2023/01/23 10:25:11;;;;;;;45.28;32.25;;;;;;;3.28;100.00;161425.81;5009330;28;20026;-58
2023/01/23 10:27:43;;;;;;;40.55;34.80;;;;;;;3.27;100.00;161423.09;5010793;28;20335;-62
2023/01/23 10:30:23;;;;;;;45.83;33.17;;;;;;;3.21;100.00;161407.00;5009389;28;20072;-61
2023/01/23 10:32:56;;;;;;;42.65;31.63;;;;;;;3.28;100.00;161427.13;5011154;28;20166;-62
2023/01/23 10:35:31;;;;;;;44.08;31.83;;;;;;;3.22;100.00;161409.69;5008856;28;20038;-61
2023/01/23 10:38:26;;;;;;;38.58;29.45;;;;;;;3.19;100.00;161402.97;5011162;28;20107;-62
2023/01/23 10:43:36;;;;;;;39.20;29.45;;;;;;;3.20;100.00;161404.31;5010865;28;20073;-61
2023/01/23 10:46:10;;;;;;;37.85;28.63;;;;;;;3.22;100.00;161411.00;5009468;28;20046;-62
2023/01/23 10:48:35;;;;;;;33.78;25.48;;;;;;;3.21;100.00;161407.00;5010033;28;20018;-61
2023/01/23 10:51:00;;;;;;;43.67;32.20;;;;;;;3.18;100.00;161401.63;5009306;28;20124;-61
2023/01/23 10:53:26;;;;;;;40.22;30.80;;;;;;;3.11;100.00;161382.81;5010485;28;20029;-61
2023/01/23 10:55:56;;;;;;;43.53;29.52;;;;;;;3.08;100.00;161373.41;5009084;28;20041;-61
2023/01/23 10:58:30;;;;;;;33.45;24.67;;;;;;;3.13;100.00;161388.19;5010387;28;20022;-61
2023/01/23 11:00:56;;;;;;;34.92;27.48;;;;;;;3.09;100.00;161376.09;5009073;28;20073;-61
2023/01/23 11:03:29;;;;;;;41.15;27.13;;;;;;;3.12;100.00;161385.50;5009015;28;20050;-61
2023/01/23 11:06:06;;;;;;;29.25;23.58;;;;;;;3.08;100.00;161374.78;5009725;28;20096;-61
2023/01/23 11:08:37;;;;;;;45.17;26.83;;;;;;;3.13;100.00;161386.81;5014178;28;20030;-61
2023/01/23 11:11:15;;;;;;;28.48;22.60;;;;;;;3.13;100.00;161388.19;5012659;28;20484;-61
2023/01/23 11:13:43;;;;;;;29.40;21.25;;;;;;;3.07;100.00;161372.09;5021855;28;20026;-62
2023/01/23 11:16:22;;;;;;;31.30;24.10;;;;;;;3.05;100.00;161365.38;5028582;28;20061;-62
2023/01/23 11:19:01;;;;;;;29.35;21.77;;;;;;;3.05;100.00;161366.72;5012676;28;20087;-61
2023/01/23 11:21:29;;;;;;;28.23;21.48;;;;;;;3.09;100.00;161377.44;5012147;28;20509;-61